Cape Magnolia — 3FGP2 — position and weather

sailwx.info

Track history (hours):
 
Tides and Currents Weather Stations Pressure Air Temp Water Temp Dewpoint Dewpoint Depression Visibility Wind Speed Wind Dir Waves Ship Positions

Cape Magnolia

Last reported at 2017-Sep-18 16:20 UTC. Time now 2017-Oct-23 04:43 UTC.
Position N 01°21' E 103°18'.
Warning: this ship's position is 34 days out of date.

Length 292 m; draft 10.5 m.

Type: Cargo ship. MMSI: 357427000.

Date/timePositionNaut miles runAvg speedWind from/ knotsBaromVisibWave heightAir tempDewpointWater temp
2017-Sep-18 16:20N 01°21' E 103°18'412.7
2017-Sep-18 16:00N 01°18' E 103°21'612.2
2017-Sep-18 15:30N 01°14' E 103°26'612.5
2017-Sep-18 15:00N 01°13' E 103°32'612.7
2017-Sep-18 14:30N 01°11' E 103°38'612.1
2017-Sep-18 14:00N 01°09' E 103°44'612.9
2017-Sep-18 13:30N 01°11' E 103°50'713.6
2017-Sep-18 13:01N 01°14' E 103°56'612.3
2017-Sep-18 12:30N 01°16' E 104°02'3 5.4
2017-Sep-18 11:55N 01°18' E 104°04'0 0.1
2017-Sep-18 11:10N 01°18' E 104°04'0 0.0
2017-Sep-18 10:59N 01°18' E 104°04'0 0.0
2017-Sep-18 10:25N 01°18' E 104°04'0 0.0
2017-Sep-18 09:46N 01°18' E 104°04'0 0.0
2017-Sep-18 07:23N 01°18' E 104°04'0 0.1
2017-Sep-18 06:55N 01°18' E 104°04'0 0.0
2017-Sep-18 05:22N 01°18' E 104°04'0 0.0
2017-Sep-18 04:58N 01°18' E 104°04'0 0.1
2017-Sep-18 03:55N 01°18' E 104°04'0 0.0
2017-Sep-18 02:49N 01°18' E 104°04'0 0.0
2017-Sep-18 02:10N 01°18' E 104°04'0 0.0
2017-Sep-18 00:25N 01°18' E 104°04'0 0.1
2017-Sep-17 23:35N 01°18' E 104°04'0 0.3
2017-Sep-17 23:08N 01°18' E 104°04'0 0.2
2017-Sep-17 22:50N 01°18' E 104°04'0 0.0
2017-Sep-17 22:29N 01°18' E 104°04'0 0.1
2017-Sep-17 21:58N 01°18' E 104°04'0 0.0
2017-Sep-17 21:28N 01°18' E 104°04'0 0.0
2017-Sep-17 20:49N 01°18' E 104°04'0 0.0
2017-Sep-17 20:23N 01°18' E 104°04'0 0.0
2017-Sep-17 19:56N 01°18' E 104°04'0 0.2
2017-Sep-17 19:30N 01°18' E 104°04'1 2.1
2017-Sep-17 18:57N 01°19' E 104°05'2 4.2
2017-Sep-17 18:28N 01°17' E 104°07'5 5.3
2017-Sep-17 17:38N 01°17' E 104°12'2 9.3
2017-Sep-17 17:27N 01°18' E 104°13'9 9.2
2017-Sep-17 16:27N 01°21' E 104°22'  
Track history (hours):
 
Tides and Currents Weather Stations Pressure Air Temp Water Temp Dewpoint Dewpoint Depression Visibility Wind Speed Wind Dir Waves Ship Positions

Cape Magnolia

Last reported at 2017-Sep-18 16:20 UTC. Time now 2017-Oct-23 04:43 UTC.
Position N 01°21' E 103°18'.
Warning: this ship's position is 34 days out of date.

Length 292 m; draft 10.5 m.

Type: Cargo ship. MMSI: 357427000.

Date/timePositionNaut miles runAvg speedWind from/ knotsBaromVisibWave heightAir tempDewpointWater temp
2017-Sep-18 16:20N 01°21' E 103°18'412.7
2017-Sep-18 16:00N 01°18' E 103°21'612.2
2017-Sep-18 15:30N 01°14' E 103°26'612.5
2017-Sep-18 15:00N 01°13' E 103°32'612.7
2017-Sep-18 14:30N 01°11' E 103°38'612.1
2017-Sep-18 14:00N 01°09' E 103°44'612.9
2017-Sep-18 13:30N 01°11' E 103°50'713.6
2017-Sep-18 13:01N 01°14' E 103°56'612.3
2017-Sep-18 12:30N 01°16' E 104°02'3 5.4
2017-Sep-18 11:55N 01°18' E 104°04'0 0.1
2017-Sep-18 11:10N 01°18' E 104°04'0 0.0
2017-Sep-18 10:59N 01°18' E 104°04'0 0.0
2017-Sep-18 10:25N 01°18' E 104°04'0 0.0
2017-Sep-18 09:46N 01°18' E 104°04'0 0.0
2017-Sep-18 07:23N 01°18' E 104°04'0 0.1
2017-Sep-18 06:55N 01°18' E 104°04'0 0.0
2017-Sep-18 05:22N 01°18' E 104°04'0 0.0
2017-Sep-18 04:58N 01°18' E 104°04'0 0.1
2017-Sep-18 03:55N 01°18' E 104°04'0 0.0
2017-Sep-18 02:49N 01°18' E 104°04'0 0.0
2017-Sep-18 02:10N 01°18' E 104°04'0 0.0
2017-Sep-18 00:25N 01°18' E 104°04'0 0.1
2017-Sep-17 23:35N 01°18' E 104°04'0 0.3
2017-Sep-17 23:08N 01°18' E 104°04'0 0.2
2017-Sep-17 22:50N 01°18' E 104°04'0 0.0
2017-Sep-17 22:29N 01°18' E 104°04'0 0.1
2017-Sep-17 21:58N 01°18' E 104°04'0 0.0
2017-Sep-17 21:28N 01°18' E 104°04'0 0.0
2017-Sep-17 20:49N 01°18' E 104°04'0 0.0
2017-Sep-17 20:23N 01°18' E 104°04'0 0.0
2017-Sep-17 19:56N 01°18' E 104°04'0 0.2
2017-Sep-17 19:30N 01°18' E 104°04'1 2.1
2017-Sep-17 18:57N 01°19' E 104°05'2 4.2
2017-Sep-17 18:28N 01°17' E 104°07'5 5.3
2017-Sep-17 17:38N 01°17' E 104°12'2 9.3
2017-Sep-17 17:27N 01°18' E 104°13'9 9.2
2017-Sep-17 16:27N 01°21' E 104°22'  

Dump ship's entire track history